Time;durP1;ratioP1;P1;durP2;ratioP2;P2;SDS_P1;SDS_P2;PMS_P1;PMS_P2;Temp;Humidity;BMP_temperature;BMP_pressure;BME280_temperature;BME280_humidity;BME280_pressure;Samples;Min_cycle;Max_cycle;Signal;HPM_P1;HPM_P2
2022/08/26 00:02:16;;;;;;;;;;;22.50;70.30;;;;;;5066548;28;19921;-80
2022/08/26 00:04:42;;;;;;;;;;;22.30;70.50;;;;;;5068196;28;19921;-80
2022/08/26 00:07:07;;;;;;;;;;;22.20;70.70;;;;;;5068962;28;19927;-80
2022/08/26 00:09:33;;;;;;;;;;;22.20;70.70;;;;;;5069406;28;20398;-80
2022/08/26 00:11:59;;;;;;;;;;;22.10;71.00;;;;;;5082694;28;20432;-79
2022/08/26 00:14:25;;;;;;;;;;;22.10;70.80;;;;;;5070905;28;19952;-80
2022/08/26 00:16:50;;;;;;;;;;;22.10;70.90;;;;;;5072918;28;19912;-80
2022/08/26 00:19:17;;;;;;;;;;;22.10;71.20;;;;;;5070642;28;19913;-78
2022/08/26 00:21:43;;;;;;;;;;;22.10;71.00;;;;;;5069930;28;19920;-79
2022/08/26 00:24:08;;;;;;;;;;;22.10;71.50;;;;;;5066299;28;19913;-79
2022/08/26 00:26:34;;;;;;;;;;;22.00;71.80;;;;;;5070022;28;19989;-80
2022/08/26 00:28:59;;;;;;;;;;;22.10;71.40;;;;;;5067768;28;19938;-80
2022/08/26 00:31:25;;;;;;;;;;;22.10;71.40;;;;;;5064702;28;19939;-79
2022/08/26 00:33:50;;;;;;;;;;;22.10;72.10;;;;;;5070889;28;19920;-80
2022/08/26 00:36:16;;;;;;;;;;;22.00;71.90;;;;;;5066961;28;19921;-80
2022/08/26 00:38:41;;;;;;;;;;;22.00;71.90;;;;;;5068894;28;19959;-80
2022/08/26 00:41:07;;;;;;;;;;;22.10;71.70;;;;;;5071855;28;19913;-80
2022/08/26 00:43:33;;;;;;;;;;;22.10;72.10;;;;;;5071371;28;20275;-81
2022/08/26 00:46:14;;;;;;;;;;;22.00;72.40;;;;;;5066975;28;20020;-80
2022/08/26 00:48:42;;;;;;;;;;;22.00;72.50;;;;;;5058727;28;19920;-80
2022/08/26 00:51:11;;;;;;;;;;;21.90;72.90;;;;;;5087954;28;19919;-80
2022/08/26 00:53:40;;;;;;;;;;;22.00;72.30;;;;;;5072175;28;19992;-80
2022/08/26 00:56:08;;;;;;;;;;;21.90;72.70;;;;;;5070150;28;19920;-80
2022/08/26 00:58:35;;;;;;;;;;;21.90;72.80;;;;;;5074958;28;19954;-79
2022/08/26 01:01:00;;;;;;;;;;;22.00;71.60;;;;;;5064750;28;19966;-80
2022/08/26 01:03:27;;;;;;;;;;;22.00;71.20;;;;;;5069397;28;20432;-79
2022/08/26 01:05:54;;;;;;;;;;;22.10;71.30;;;;;;5070336;28;19965;-79
2022/08/26 01:08:21;;;;;;;;;;;21.90;71.40;;;;;;5069982;28;19913;-79
2022/08/26 01:10:46;;;;;;;;;;;21.90;72.00;;;;;;5067364;28;19916;-80
2022/08/26 01:13:12;;;;;;;;;;;21.90;72.30;;;;;;5074200;28;19912;-80
2022/08/26 01:15:43;;;;;;;;;;;21.80;72.50;;;;;;5071014;28;21056;-80
2022/08/26 01:18:08;;;;;;;;;;;21.80;72.10;;;;;;5073620;28;19912;-79
2022/08/26 01:20:38;;;;;;;;;;;21.80;72.10;;;;;;5070157;28;19928;-81
2022/08/26 01:23:06;;;;;;;;;;;21.80;71.10;;;;;;5067608;28;19912;-80
2022/08/26 01:25:33;;;;;;;;;;;21.80;70.80;;;;;;5072423;28;20344;-80
2022/08/26 01:28:00;;;;;;;;;;;21.80;70.90;;;;;;5071845;28;19912;-80
2022/08/26 01:30:26;;;;;;;;;;;21.90;71.10;;;;;;5070440;28;19912;-79
2022/08/26 01:32:54;;;;;;;;;;;21.90;71.10;;;;;;5069932;28;20425;-80
2022/08/26 01:35:20;;;;;;;;;;;21.80;71.20;;;;;;5068471;28;20244;-80
2022/08/26 01:37:46;;;;;;;;;;;21.70;71.60;;;;;;5064416;28;19927;-80
2022/08/26 01:40:15;;;;;;;;;;;21.70;71.80;;;;;;5066290;28;19922;-80
2022/08/26 01:42:41;;;;;;;;;;;21.50;72.40;;;;;;5070747;28;20302;-80
2022/08/26 01:45:11;;;;;;;;;;;21.60;72.30;;;;;;5072900;28;19916;-81
2022/08/26 01:47:37;;;;;;;;;;;21.60;72.60;;;;;;5069173;28;19927;-80
2022/08/26 01:50:06;;;;;;;;;;;21.60;73.00;;;;;;5068587;28;20336;-81
2022/08/26 01:52:34;;;;;;;;;;;21.50;73.10;;;;;;5073378;28;19924;-80
2022/08/26 01:55:00;;;;;;;;;;;21.50;72.90;;;;;;5069471;28;20050;-80
2022/08/26 01:57:25;;;;;;;;;;;21.50;72.80;;;;;;5066733;28;20007;-81
2022/08/26 02:02:24;;;;;;;;;;;21.00;73.20;;;;;;5040889;28;20392;-75
2022/08/26 02:04:55;;;;;;;;;;;20.70;74.30;;;;;;5048029;28;19920;-75
2022/08/26 02:07:21;;;;;;;;;;;20.90;74.70;;;;;;5048287;28;20322;-74
2022/08/26 02:09:46;;;;;;;;;;;20.90;74.80;;;;;;5049948;28;19912;-74
2022/08/26 02:12:13;;;;;;;;;;;20.90;74.80;;;;;;5047602;28;19927;-74
2022/08/26 02:14:40;;;;;;;;;;;20.90;74.80;;;;;;5045146;28;19974;-74
2022/08/26 02:17:07;;;;;;;;;;;21.00;74.10;;;;;;5044324;28;20457;-75
2022/08/26 02:19:34;;;;;;;;;;;21.10;73.40;;;;;;5030456;28;20002;-73
2022/08/26 02:22:02;;;;;;;;;;;21.10;73.90;;;;;;5029424;28;19913;-73
2022/08/26 02:24:29;;;;;;;;;;;21.10;73.20;;;;;;5045694;28;19916;-74
2022/08/26 02:26:56;;;;;;;;;;;21.10;73.00;;;;;;5048422;28;19919;-74
2022/08/26 02:29:22;;;;;;;;;;;21.20;73.00;;;;;;5027668;28;19939;-74
2022/08/26 02:31:48;;;;;;;;;;;21.40;72.10;;;;;;5029145;28;19948;-74
2022/08/26 02:34:15;;;;;;;;;;;21.50;71.80;;;;;;5048634;28;20021;-73
2022/08/26 02:36:41;;;;;;;;;;;21.50;71.50;;;;;;5042583;28;19959;-77
2022/08/26 02:39:07;;;;;;;;;;;21.50;71.50;;;;;;5047399;28;19917;-77
2022/08/26 02:41:33;;;;;;;;;;;21.60;71.00;;;;;;5049347;28;19913;-76
2022/08/26 02:43:58;;;;;;;;;;;21.60;70.70;;;;;;5043447;28;19917;-76
2022/08/26 02:46:24;;;;;;;;;;;21.50;70.90;;;;;;5048512;28;19943;-77
2022/08/26 02:48:49;;;;;;;;;;;21.50;70.80;;;;;;5032996;28;19912;-77
2022/08/26 02:51:15;;;;;;;;;;;21.50;71.00;;;;;;5046521;28;19917;-74
2022/08/26 02:53:41;;;;;;;;;;;21.40;71.00;;;;;;5030114;28;19913;-74
2022/08/26 02:56:07;;;;;;;;;;;21.50;70.70;;;;;;5045735;28;20003;-74
2022/08/26 02:58:32;;;;;;;;;;;21.50;70.60;;;;;;5044866;28;19990;-74
2022/08/26 03:00:58;;;;;;;;;;;21.50;70.50;;;;;;5047568;28;19920;-74
2022/08/26 03:03:24;;;;;;;;;;;21.40;70.70;;;;;;5032687;28;20270;-74
2022/08/26 03:05:50;;;;;;;;;;;21.40;70.80;;;;;;5025168;28;19924;-75
2022/08/26 03:08:15;;;;;;;;;;;21.30;71.30;;;;;;5043562;28;19916;-73
2022/08/26 03:10:41;;;;;;;;;;;21.30;71.60;;;;;;5027178;28;19913;-74
2022/08/26 03:13:06;;;;;;;;;;;21.30;71.60;;;;;;5029731;28;20324;-74
2022/08/26 03:15:32;;;;;;;;;;;21.20;72.00;;;;;;5027790;28;19936;-74
2022/08/26 03:17:57;;;;;;;;;;;21.30;72.10;;;;;;5047788;28;19917;-74
2022/08/26 03:20:23;;;;;;;;;;;21.30;72.60;;;;;;5042675;28;19913;-75
2022/08/26 03:22:52;;;;;;;;;;;21.20;73.20;;;;;;5029797;28;19913;-74
2022/08/26 03:25:18;;;;;;;;;;;21.20;73.20;;;;;;5028798;28;19927;-74
2022/08/26 03:27:43;;;;;;;;;;;21.10;73.60;;;;;;5048431;28;19920;-74
2022/08/26 03:32:54;;;;;;;;;;;21.10;74.10;;;;;;5046777;28;20368;-74
2022/08/26 03:35:20;;;;;;;;;;;21.10;74.80;;;;;;5045273;28;20011;-74
2022/08/26 03:37:45;;;;;;;;;;;20.90;75.60;;;;;;5045058;28;19966;-74
2022/08/26 03:40:11;;;;;;;;;;;20.90;75.70;;;;;;5029774;28;19960;-74
2022/08/26 03:42:38;;;;;;;;;;;20.90;76.10;;;;;;5048139;28;20054;-74
2022/08/26 03:45:04;;;;;;;;;;;20.80;76.50;;;;;;5045636;28;19982;-74
2022/08/26 03:47:30;;;;;;;;;;;21.00;76.50;;;;;;5047519;28;20408;-74
2022/08/26 03:49:56;;;;;;;;;;;21.00;76.70;;;;;;5027164;28;20046;-74
2022/08/26 03:52:21;;;;;;;;;;;20.90;77.20;;;;;;5046786;28;19913;-74
2022/08/26 03:54:47;;;;;;;;;;;20.80;77.70;;;;;;5045260;28;20398;-74
2022/08/26 03:57:12;;;;;;;;;;;20.90;77.70;;;;;;5028863;28;19921;-72
2022/08/26 03:59:38;;;;;;;;;;;20.90;77.90;;;;;;5029658;28;19921;-74
2022/08/26 04:02:04;;;;;;;;;;;20.90;77.80;;;;;;5044593;28;19931;-74
2022/08/26 04:04:29;;;;;;;;;;;20.80;78.30;;;;;;5024781;28;19920;-73
2022/08/26 04:06:57;;;;;;;;;;;20.80;78.40;;;;;;5044694;28;19913;-74
2022/08/26 04:09:22;;;;;;;;;;;20.80;78.40;;;;;;5043837;28;20436;-77
2022/08/26 04:11:48;;;;;;;;;;;20.80;78.90;;;;;;5028413;28;19947;-74
2022/08/26 04:14:15;;;;;;;;;;;20.70;78.90;;;;;;5030243;28;19935;-74
2022/08/26 04:16:41;;;;;;;;;;;20.70;79.40;;;;;;5045774;28;19958;-74
2022/08/26 04:19:07;;;;;;;;;;;20.70;79.50;;;;;;5046045;28;19912;-74
2022/08/26 04:21:32;;;;;;;;;;;20.70;79.90;;;;;;5029335;28;20004;-74
2022/08/26 04:23:58;;;;;;;;;;;20.70;80.00;;;;;;5043566;28;19924;-74
2022/08/26 04:26:23;;;;;;;;;;;20.70;80.00;;;;;;5048682;28;20378;-74
2022/08/26 04:28:50;;;;;;;;;;;20.70;80.20;;;;;;5044518;28;19952;-74
2022/08/26 04:31:16;;;;;;;;;;;20.70;80.50;;;;;;5045220;28;19916;-74
2022/08/26 04:33:43;;;;;;;;;;;20.70;80.70;;;;;;5045508;28;19967;-74
2022/08/26 04:36:09;;;;;;;;;;;20.60;80.90;;;;;;5049639;28;19975;-74
2022/08/26 04:38:34;;;;;;;;;;;20.70;80.70;;;;;;5030288;28;19925;-73
2022/08/26 04:41:00;;;;;;;;;;;20.60;81.10;;;;;;5046595;28;19920;-73
2022/08/26 04:43:29;;;;;;;;;;;20.70;81.20;;;;;;5041898;28;19924;-74
2022/08/26 04:45:55;;;;;;;;;;;20.70;81.20;;;;;;5048222;28;19923;-74
2022/08/26 04:48:21;;;;;;;;;;;20.60;81.60;;;;;;5047922;28;19913;-74
2022/08/26 04:50:46;;;;;;;;;;;20.60;81.80;;;;;;5046772;28;19920;-74
2022/08/26 04:53:12;;;;;;;;;;;20.60;82.20;;;;;;5049505;28;20388;-74
2022/08/26 04:55:38;;;;;;;;;;;20.70;81.90;;;;;;5051155;28;19917;-74
2022/08/26 04:58:03;;;;;;;;;;;20.70;82.20;;;;;;5049894;28;20336;-74
2022/08/26 05:00:29;;;;;;;;;;;20.70;82.20;;;;;;5048598;28;19956;-74
2022/08/26 05:02:54;;;;;;;;;;;20.60;82.40;;;;;;5050632;28;20364;-77
2022/08/26 05:05:20;;;;;;;;;;;21.00;82.10;;;;;;5044055;28;19923;-74
2022/08/26 05:07:46;;;;;;;;;;;21.00;82.00;;;;;;5049012;28;19932;-76
2022/08/26 05:10:11;;;;;;;;;;;21.00;82.00;;;;;;5050044;28;19924;-75
2022/08/26 05:12:36;;;;;;;;;;;21.10;81.90;;;;;;5049593;28;19913;-74
2022/08/26 05:15:02;;;;;;;;;;;21.10;81.60;;;;;;5051370;28;19948;-76
2022/08/26 05:17:28;;;;;;;;;;;21.00;82.10;;;;;;5034097;28;19913;-75
2022/08/26 05:19:54;;;;;;;;;;;21.10;81.90;;;;;;5031744;28;19913;-75
2022/08/26 05:22:19;;;;;;;;;;;21.00;81.90;;;;;;5045520;28;19952;-76
2022/08/26 05:24:45;;;;;;;;;;;21.00;82.30;;;;;;5030731;28;20293;-75
2022/08/26 05:27:11;;;;;;;;;;;21.00;82.20;;;;;;5030475;28;19919;-75
2022/08/26 05:29:37;;;;;;;;;;;21.00;82.20;;;;;;5042264;28;19920;-75
2022/08/26 05:32:02;;;;;;;;;;;21.10;82.10;;;;;;5048804;28;19913;-74
2022/08/26 05:34:28;;;;;;;;;;;21.10;81.90;;;;;;5046949;28;20007;-75
2022/08/26 05:36:53;;;;;;;;;;;21.10;82.10;;;;;;5048016;28;20039;-75
2022/08/26 05:39:20;;;;;;;;;;;21.10;82.00;;;;;;5047484;28;19912;-75
2022/08/26 05:41:45;;;;;;;;;;;21.20;82.00;;;;;;5043447;28;19912;-75
2022/08/26 05:44:13;;;;;;;;;;;21.30;81.70;;;;;;5042549;28;19924;-75
2022/08/26 05:46:39;;;;;;;;;;;21.40;81.40;;;;;;5048674;28;20405;-75
2022/08/26 05:49:05;;;;;;;;;;;21.50;81.00;;;;;;5047581;28;19967;-75
2022/08/26 05:51:31;;;;;;;;;;;21.50;80.80;;;;;;5046148;28;19920;-76
2022/08/26 05:53:56;;;;;;;;;;;21.50;80.70;;;;;;5044083;28;19913;-75
2022/08/26 05:56:26;;;;;;;;;;;21.60;80.80;;;;;;5047868;28;20289;-76
2022/08/26 05:58:52;;;;;;;;;;;21.60;80.50;;;;;;5046497;28;19913;-76
2022/08/26 06:01:19;;;;;;;;;;;21.60;80.50;;;;;;5043235;28;19943;-77
2022/08/26 06:03:45;;;;;;;;;;;21.60;80.20;;;;;;5043085;28;19916;-77
2022/08/26 06:06:14;;;;;;;;;;;21.50;80.80;;;;;;5027031;28;20018;-76
2022/08/26 06:08:39;;;;;;;;;;;21.70;80.50;;;;;;5047617;28;20435;-77
2022/08/26 06:11:07;;;;;;;;;;;21.60;80.60;;;;;;5043030;28;19913;-76
2022/08/26 06:13:33;;;;;;;;;;;21.60;80.80;;;;;;5046194;28;20007;-77
2022/08/26 06:16:01;;;;;;;;;;;21.70;80.30;;;;;;5051747;28;20068;-76
2022/08/26 06:18:33;;;;;;;;;;;21.70;80.30;;;;;;5052242;28;19912;-77
2022/08/26 06:20:59;;;;;;;;;;;22.00;79.70;;;;;;5026558;28;20412;-79
2022/08/26 06:26:10;;;;;;;;;;;22.10;79.40;;;;;;5039569;28;20396;-75
2022/08/26 06:28:36;;;;;;;;;;;22.10;78.50;;;;;;5043753;28;19921;-76
2022/08/26 06:31:02;;;;;;;;;;;22.20;78.20;;;;;;5041873;28;19913;-77
2022/08/26 06:33:27;;;;;;;;;;;22.10;78.20;;;;;;5050711;28;19995;-77
2022/08/26 06:35:53;;;;;;;;;;;22.10;77.90;;;;;;5051653;28;19944;-77
2022/08/26 06:38:19;;;;;;;;;;;22.00;78.80;;;;;;5030275;28;20898;-77
2022/08/26 06:40:47;;;;;;;;;;;22.00;78.80;;;;;;5050292;28;19917;-77
2022/08/26 06:43:13;;;;;;;;;;;22.10;78.20;;;;;;5037077;28;19917;-77
2022/08/26 06:45:39;;;;;;;;;;;22.10;77.80;;;;;;5050031;28;19943;-77
2022/08/26 06:48:05;;;;;;;;;;;22.10;77.80;;;;;;5050092;28;20365;-76
2022/08/26 06:50:32;;;;;;;;;;;22.10;77.50;;;;;;5049152;28;19913;-77
2022/08/26 06:52:57;;;;;;;;;;;22.20;77.30;;;;;;5044032;28;19917;-77
2022/08/26 06:55:23;;;;;;;;;;;22.10;77.60;;;;;;5048025;28;19942;-76
2022/08/26 06:57:48;;;;;;;;;;;22.10;77.70;;;;;;5047338;28;19942;-77
2022/08/26 07:00:14;;;;;;;;;;;22.10;77.30;;;;;;5049166;28;19954;-77
2022/08/26 07:02:40;;;;;;;;;;;22.10;77.50;;;;;;5039500;28;20007;-77
2022/08/26 07:05:05;;;;;;;;;;;22.10;77.70;;;;;;5048092;28;20446;-77
2022/08/26 07:07:31;;;;;;;;;;;22.10;77.80;;;;;;5045177;28;19932;-77
2022/08/26 07:09:58;;;;;;;;;;;22.10;77.70;;;;;;5048879;28;20415;-76
2022/08/26 07:12:24;;;;;;;;;;;22.20;77.10;;;;;;5029105;28;19996;-76
2022/08/26 07:14:50;;;;;;;;;;;22.10;77.70;;;;;;5029806;28;19963;-77
2022/08/26 07:17:16;;;;;;;;;;;22.20;77.30;;;;;;5030704;28;20329;-76
2022/08/26 07:19:41;;;;;;;;;;;22.30;76.90;;;;;;5045852;28;20003;-77
2022/08/26 07:22:07;;;;;;;;;;;22.20;76.90;;;;;;5033943;28;19959;-76
2022/08/26 07:24:33;;;;;;;;;;;22.30;76.40;;;;;;5047081;28;19939;-77
2022/08/26 07:27:00;;;;;;;;;;;22.20;76.90;;;;;;5028963;28;20315;-74
2022/08/26 07:29:25;;;;;;;;;;;22.30;76.70;;;;;;5049247;28;19983;-77
2022/08/26 07:31:51;;;;;;;;;;;22.30;76.00;;;;;;5029738;28;20011;-78
2022/08/26 07:34:16;;;;;;;;;;;22.40;76.20;;;;;;5048510;28;19966;-77
2022/08/26 07:36:42;;;;;;;;;;;22.40;76.30;;;;;;5044347;28;19924;-77
2022/08/26 07:39:07;;;;;;;;;;;22.50;76.10;;;;;;5049224;28;20447;-77
2022/08/26 07:41:33;;;;;;;;;;;22.50;75.80;;;;;;5051268;28;19919;-77
2022/08/26 07:43:58;;;;;;;;;;;22.50;76.00;;;;;;5047505;28;19985;-76
2022/08/26 07:46:24;;;;;;;;;;;22.40;76.40;;;;;;5049818;28;19917;-78
2022/08/26 07:48:50;;;;;;;;;;;22.50;75.90;;;;;;5050348;28;19919;-76
2022/08/26 07:51:17;;;;;;;;;;;22.60;75.50;;;;;;5053313;28;19921;-78
2022/08/26 07:53:43;;;;;;;;;;;22.80;74.70;;;;;;5028366;28;19913;-78
2022/08/26 07:56:09;;;;;;;;;;;22.80;75.00;;;;;;5045297;28;19947;-76
2022/08/26 07:58:34;;;;;;;;;;;22.80;74.60;;;;;;5032886;28;19987;-76
2022/08/26 08:01:00;;;;;;;;;;;22.70;74.90;;;;;;5051030;28;20377;-77
2022/08/26 08:03:25;;;;;;;;;;;22.70;75.10;;;;;;5033338;28;19916;-77
2022/08/26 08:05:51;;;;;;;;;;;22.70;75.50;;;;;;5094633;22;20019;-81
2022/08/26 08:08:16;;;;;;;;;;;22.80;74.80;;;;;;5053616;28;19919;-79
2022/08/26 08:10:43;;;;;;;;;;;22.70;74.90;;;;;;5036194;28;19914;-81
2022/08/26 08:13:09;;;;;;;;;;;22.70;75.00;;;;;;5052230;28;20390;-80
2022/08/26 08:15:36;;;;;;;;;;;22.90;74.70;;;;;;5043668;28;20311;-82
2022/08/26 08:18:02;;;;;;;;;;;22.80;75.10;;;;;;5017526;28;19917;-82
2022/08/26 08:20:27;;;;;;;;;;;22.80;74.90;;;;;;5016196;28;20296;-82
2022/08/26 08:22:53;;;;;;;;;;;22.80;74.80;;;;;;5020181;28;20399;-82
2022/08/26 08:25:18;;;;;;;;;;;22.90;75.00;;;;;;5017224;28;19972;-81
2022/08/26 08:27:45;;;;;;;;;;;22.90;74.30;;;;;;5033584;28;20007;-79
2022/08/26 08:30:14;;;;;;;;;;;23.00;74.50;;;;;;5018106;28;20331;-81
2022/08/26 08:32:42;;;;;;;;;;;23.10;74.40;;;;;;5038583;28;20004;-81
2022/08/26 08:35:08;;;;;;;;;;;23.10;74.00;;;;;;5016254;28;19914;-81
2022/08/26 08:37:34;;;;;;;;;;;23.10;73.80;;;;;;5016297;28;20391;-80
2022/08/26 08:40:00;;;;;;;;;;;23.20;73.70;;;;;;5018501;28;19917;-81
2022/08/26 08:42:25;;;;;;;;;;;23.30;73.00;;;;;;5033014;28;19920;-80
2022/08/26 08:44:51;;;;;;;;;;;23.20;73.50;;;;;;5034024;28;19917;-80
2022/08/26 08:47:19;;;;;;;;;;;23.30;73.30;;;;;;5032889;28;19913;-79
2022/08/26 08:49:45;;;;;;;;;;;23.10;74.00;;;;;;5031403;28;21740;-79
2022/08/26 08:52:27;;;;;;;;;;;23.20;73.60;;;;;;5030273;28;19913;-79
2022/08/26 08:54:54;;;;;;;;;;;23.20;73.40;;;;;;5025193;28;19979;-82
2022/08/26 08:57:24;;;;;;;;;;;23.10;74.00;;;;;;5029366;28;19914;-80
2022/08/26 08:59:57;;;;;;;;;;;23.10;74.20;;;;;;5017414;28;20042;-80
2022/08/26 09:02:28;;;;;;;;;;;23.00;74.60;;;;;;5030445;28;19943;-80
2022/08/26 09:05:02;;;;;;;;;;;23.00;74.00;;;;;;5029928;28;20455;-79
2022/08/26 09:07:32;;;;;;;;;;;23.10;73.80;;;;;;5026048;28;20069;-79
2022/08/26 09:10:00;;;;;;;;;;;23.20;73.50;;;;;;5023050;28;19921;-80
2022/08/26 09:12:27;;;;;;;;;;;23.20;73.40;;;;;;5030768;28;19948;-81
2022/08/26 09:14:56;;;;;;;;;;;23.20;73.80;;;;;;5009813;28;19920;-82
2022/08/26 09:17:42;;;;;;;;;;;23.20;73.60;;;;;;5029937;28;20014;-83
2022/08/26 09:20:30;;;;;;;;;;;23.20;73.90;;;;;;5027476;28;19953;-81
2022/08/26 09:22:56;;;;;;;;;;;23.10;73.90;;;;;;5029168;28;19929;-87
2022/08/26 09:25:22;;;;;;;;;;;23.00;74.30;;;;;;5028484;28;19921;-80
2022/08/26 09:27:49;;;;;;;;;;;23.10;73.80;;;;;;5027548;28;20545;-86
2022/08/26 09:30:20;;;;;;;;;;;22.90;74.30;;;;;;5017474;28;19913;-87
2022/08/26 09:33:07;;;;;;;;;;;22.90;74.30;;;;;;5007688;28;20300;-88
2022/08/26 09:35:34;;;;;;;;;;;23.00;74.10;;;;;;5026692;28;19920;-86
2022/08/26 09:38:00;;;;;;;;;;;23.10;73.90;;;;;;5014104;28;19913;-89
2022/08/26 09:40:28;;;;;;;;;;;23.20;73.20;;;;;;5014369;28;19913;-81
2022/08/26 09:43:14;;;;;;;;;;;23.30;73.40;;;;;;5027010;28;19936;-80
2022/08/26 09:45:42;;;;;;;;;;;23.60;72.20;;;;;;5029918;28;19924;-80
2022/08/26 09:48:07;;;;;;;;;;;23.80;71.00;;;;;;5014887;28;20335;-81
2022/08/26 09:50:37;;;;;;;;;;;23.90;70.30;;;;;;5032657;28;19913;-81
2022/08/26 09:53:06;;;;;;;;;;;23.80;70.90;;;;;;5028683;28;19924;-82
2022/08/26 09:55:32;;;;;;;;;;;23.80;71.40;;;;;;5030635;28;19948;-81
2022/08/26 09:57:57;;;;;;;;;;;24.00;70.30;;;;;;5027475;28;19921;-81
2022/08/26 10:00:25;;;;;;;;;;;24.10;69.60;;;;;;5027652;28;19926;-80
2022/08/26 10:02:50;;;;;;;;;;;24.20;69.20;;;;;;5027100;28;20384;-82
2022/08/26 10:05:26;;;;;;;;;;;24.20;68.90;;;;;;5030924;28;19921;-82
2022/08/26 10:07:52;;;;;;;;;;;24.10;69.50;;;;;;5011462;28;20396;-83
2022/08/26 10:10:25;;;;;;;;;;;24.10;69.60;;;;;;5006410;28;19920;-85
2022/08/26 10:13:11;;;;;;;;;;;24.00;69.60;;;;;;5020886;28;20350;-84
2022/08/26 10:15:54;;;;;;;;;;;24.10;69.30;;;;;;5027680;28;20302;-82
2022/08/26 10:18:23;;;;;;;;;;;24.10;69.70;;;;;;5021084;28;19919;-84
2022/08/26 10:20:55;;;;;;;;;;;24.10;69.90;;;;;;5005527;28;20396;-82
2022/08/26 10:23:23;;;;;;;;;;;24.10;69.20;;;;;;5004885;28;19913;-82
2022/08/26 10:25:58;;;;;;;;;;;24.20;69.10;;;;;;5026285;28;19924;-82
2022/08/26 10:28:38;;;;;;;;;;;24.10;69.50;;;;;;5022509;28;19968;-82
2022/08/26 10:31:13;;;;;;;;;;;24.20;69.40;;;;;;5005192;28;19917;-82
2022/08/26 10:33:40;;;;;;;;;;;24.20;68.70;;;;;;5021964;28;19958;-89
2022/08/26 10:36:47;;;;;;;;;;;24.20;69.60;;;;;;5024345;28;19917;-86
2022/08/26 10:38:56;;;;;;;;;;;24.50;68.20;;;;;;5025312;28;20543;-87
2022/08/26 10:41:23;;;;;;;;;;;24.70;67.70;;;;;;5010769;28;19913;-86
2022/08/26 10:44:02;;;;;;;;;;;24.70;67.20;;;;;;5036145;28;19913;-87
2022/08/26 10:46:36;;;;;;;;;;;24.60;67.30;;;;;;5032072;28;19925;-92
2022/08/26 10:49:04;;;;;;;;;;;24.60;68.00;;;;;;5018263;28;19913;-91
2022/08/26 10:51:34;;;;;;;;;;;24.50;68.80;;;;;;5012404;28;19913;-91
2022/08/26 10:54:02;;;;;;;;;;;24.60;67.70;;;;;;5010659;28;19997;-84
2022/08/26 10:56:28;;;;;;;;;;;24.60;68.20;;;;;;5021614;28;19996;-83
2022/08/26 10:58:59;;;;;;;;;;;24.50;67.80;;;;;;5024114;28;20436;-84
2022/08/26 11:01:44;;;;;;;;;;;24.50;67.80;;;;;;5025239;28;19939;-84
2022/08/26 11:05:00;;;;;;;;;;;24.30;69.00;;;;;;5029564;28;19913;-87
2022/08/26 11:07:29;;;;;;;;;;;24.40;68.40;;;;;;4984511;28;20420;-84
2022/08/26 11:09:56;;;;;;;;;;;24.40;68.90;;;;;;5002883;28;19913;-84
2022/08/26 11:12:34;;;;;;;;;;;24.50;68.60;;;;;;5030213;28;19913;-83
2022/08/26 11:15:00;;;;;;;;;;;24.50;68.80;;;;;;5029852;28;19913;-82
2022/08/26 11:17:43;;;;;;;;;;;24.40;69.00;;;;;;5024082;28;20428;-82
2022/08/26 11:20:10;;;;;;;;;;;24.40;69.40;;;;;;5024207;28;19924;-81
2022/08/26 11:22:37;;;;;;;;;;;24.50;68.80;;;;;;5007186;28;19924;-82
2022/08/26 11:25:05;;;;;;;;;;;24.60;68.90;;;;;;5024845;28;19929;-82
2022/08/26 11:27:33;;;;;;;;;;;24.70;67.80;;;;;;5011659;28;19913;-83
2022/08/26 11:30:07;;;;;;;;;;;24.60;67.70;;;;;;5022119;28;19916;-83
2022/08/26 11:32:32;;;;;;;;;;;24.50;68.30;;;;;;5019801;28;20380;-83
2022/08/26 11:35:03;;;;;;;;;;;24.60;68.40;;;;;;5023077;28;19967;-83
2022/08/26 11:37:34;;;;;;;;;;;24.70;68.30;;;;;;5024872;28;19913;-82
2022/08/26 11:40:02;;;;;;;;;;;24.80;67.50;;;;;;5030570;28;20673;-83
2022/08/26 11:42:35;;;;;;;;;;;24.80;67.60;;;;;;5015198;28;20404;-83
2022/08/26 11:45:25;;;;;;;;;;;24.80;67.30;;;;;;5035222;28;19924;-82
2022/08/26 11:47:50;;;;;;;;;;;24.80;66.90;;;;;;5026425;28;20257;-82
2022/08/26 11:50:16;;;;;;;;;;;24.80;67.00;;;;;;5014931;28;19924;-83
2022/08/26 11:52:52;;;;;;;;;;;24.60;67.30;;;;;;5017899;28;19919;-85
2022/08/26 11:55:17;;;;;;;;;;;24.70;67.20;;;;;;5030851;28;19913;-84
2022/08/26 11:57:45;;;;;;;;;;;24.70;67.00;;;;;;5016056;28;19920;-84
2022/08/26 12:00:22;;;;;;;;;;;24.60;67.30;;;;;;5016862;28;19913;-84
2022/08/26 12:02:48;;;;;;;;;;;24.50;67.40;;;;;;5013937;28;19913;-84
2022/08/26 12:05:41;;;;;;;;;;;24.50;67.50;;;;;;5013553;28;20027;-88
2022/08/26 12:11:21;;;;;;;;;;;24.40;67.50;;;;;;5046378;22;20407;-80
2022/08/26 12:13:54;;;;;;;;;;;24.50;67.40;;;;;;5021143;28;20381;-79
2022/08/26 12:16:31;;;;;;;;;;;24.50;67.70;;;;;;5024278;28;19913;-80
2022/08/26 12:18:56;;;;;;;;;;;24.60;66.80;;;;;;4999860;28;20389;-81
2022/08/26 12:21:29;;;;;;;;;;;24.60;67.00;;;;;;5006536;28;19964;-81
2022/08/26 12:23:56;;;;;;;;;;;24.70;66.20;;;;;;5014704;28;19920;-80
2022/08/26 12:26:24;;;;;;;;;;;24.70;67.00;;;;;;5007988;28;19932;-79
2022/08/26 12:28:54;;;;;;;;;;;24.80;66.30;;;;;;5027532;28;19920;-79
2022/08/26 12:31:26;;;;;;;;;;;24.80;66.10;;;;;;5021765;28;20008;-79
2022/08/26 12:33:52;;;;;;;;;;;24.80;66.30;;;;;;5028589;28;19924;-79
2022/08/26 12:36:20;;;;;;;;;;;24.90;66.00;;;;;;5017264;28;19913;-78
2022/08/26 12:38:46;;;;;;;;;;;25.00;65.70;;;;;;5012681;28;20329;-79
2022/08/26 12:41:31;;;;;;;;;;;24.90;66.20;;;;;;5029134;28;19914;-79
2022/08/26 12:43:57;;;;;;;;;;;24.70;66.60;;;;;;5027165;28;20294;-78
2022/08/26 12:46:24;;;;;;;;;;;24.90;65.90;;;;;;5027062;28;19925;-79
2022/08/26 12:48:49;;;;;;;;;;;24.80;66.20;;;;;;5026405;28;20020;-82
2022/08/26 12:51:25;;;;;;;;;;;25.10;65.60;;;;;;5023866;28;20413;-78
2022/08/26 12:53:51;;;;;;;;;;;25.00;66.40;;;;;;5013822;28;20135;-78
2022/08/26 12:56:19;;;;;;;;;;;24.80;66.40;;;;;;5026781;28;20373;-78
2022/08/26 12:58:58;;;;;;;;;;;24.90;66.50;;;;;;5010963;28;19959;-79
2022/08/26 13:01:23;;;;;;;;;;;24.80;66.90;;;;;;5026904;28;19992;-78
2022/08/26 13:03:49;;;;;;;;;;;24.90;66.10;;;;;;5035109;28;20008;-78
2022/08/26 13:06:21;;;;;;;;;;;24.90;66.40;;;;;;5027337;28;19976;-78
2022/08/26 13:08:50;;;;;;;;;;;24.80;66.10;;;;;;5006353;28;19929;-78
2022/08/26 13:11:19;;;;;;;;;;;24.90;66.40;;;;;;5020506;28;19971;-80
2022/08/26 13:13:50;;;;;;;;;;;24.90;66.20;;;;;;5005494;28;20372;-78
2022/08/26 13:16:17;;;;;;;;;;;25.00;65.80;;;;;;5024580;28;19920;-79
2022/08/26 13:18:42;;;;;;;;;;;25.00;65.80;;;;;;5017239;28;19917;-78
2022/08/26 13:21:10;;;;;;;;;;;25.00;65.60;;;;;;5033324;28;19991;-81
2022/08/26 13:23:36;;;;;;;;;;;25.00;66.20;;;;;;5005378;28;20007;-79
2022/08/26 13:26:01;;;;;;;;;;;24.90;66.40;;;;;;5033273;28;19952;-81
2022/08/26 13:28:27;;;;;;;;;;;24.90;67.10;;;;;;5007063;28;20289;-80
2022/08/26 13:30:52;;;;;;;;;;;24.90;66.50;;;;;;5034265;28;19917;-83
2022/08/26 13:33:20;;;;;;;;;;;24.70;66.80;;;;;;5016749;28;20008;-81
2022/08/26 13:35:45;;;;;;;;;;;24.90;66.20;;;;;;5017201;28;19914;-82
2022/08/26 13:38:13;;;;;;;;;;;24.80;66.50;;;;;;5017170;28;19968;-80
2022/08/26 13:40:42;;;;;;;;;;;24.80;66.60;;;;;;5012428;28;19913;-81
2022/08/26 13:43:09;;;;;;;;;;;24.80;66.70;;;;;;5014202;28;20390;-81
2022/08/26 13:45:35;;;;;;;;;;;24.80;66.40;;;;;;5013674;28;19928;-82
2022/08/26 13:48:00;;;;;;;;;;;24.60;67.00;;;;;;5026072;28;19913;-82
2022/08/26 13:50:26;;;;;;;;;;;24.40;67.70;;;;;;5013023;28;19927;-82
2022/08/26 13:52:52;;;;;;;;;;;24.50;67.80;;;;;;5011762;28;20000;-81
2022/08/26 13:55:17;;;;;;;;;;;24.50;68.50;;;;;;5029717;28;20265;-82
2022/08/26 13:57:43;;;;;;;;;;;24.70;67.00;;;;;;5024712;28;19910;-81
2022/08/26 14:00:09;;;;;;;;;;;24.60;67.50;;;;;;5010466;28;20277;-81
2022/08/26 14:02:35;;;;;;;;;;;24.70;67.10;;;;;;5009857;28;19917;-81
2022/08/26 14:05:00;;;;;;;;;;;24.80;66.90;;;;;;5013071;28;19925;-81
2022/08/26 14:07:26;;;;;;;;;;;24.80;66.60;;;;;;5030534;28;19914;-82
2022/08/26 14:09:51;;;;;;;;;;;24.70;66.90;;;;;;5022274;28;19913;-83
2022/08/26 14:12:17;;;;;;;;;;;24.80;66.60;;;;;;5024080;28;20388;-81
2022/08/26 14:14:42;;;;;;;;;;;24.90;66.60;;;;;;5013084;28;19985;-82
2022/08/26 14:17:08;;;;;;;;;;;24.80;66.30;;;;;;5022257;28;20329;-83
2022/08/26 14:19:34;;;;;;;;;;;24.70;66.80;;;;;;5008759;28;21322;-81
2022/08/26 14:22:00;;;;;;;;;;;24.80;66.50;;;;;;5001880;28;20290;-81
2022/08/26 14:24:25;;;;;;;;;;;24.80;66.40;;;;;;5003008;28;19919;-80
2022/08/26 14:26:51;;;;;;;;;;;24.80;66.10;;;;;;5027632;28;19932;-80
2022/08/26 14:29:16;;;;;;;;;;;24.70;66.60;;;;;;5011916;28;19959;-80
2022/08/26 14:31:42;;;;;;;;;;;24.70;66.40;;;;;;5030176;28;20017;-80